sensor_id;sensor_type;location;lat;lon;timestamp;pressure;altitude;pressure_sealevel;temperature;humidity
5380;BME280;2713;42.680;23.310;2023-02-10T00:01:57;96877.22;;;0.26;54.78
5380;BME280;2713;42.680;23.310;2023-02-10T00:04:24;96866.75;;;0.14;54.62
5380;BME280;2713;42.680;23.310;2023-02-10T00:06:50;96877.28;;;0.25;53.93
5380;BME280;2713;42.680;23.310;2023-02-10T00:09:17;96878.25;;;0.22;54.17
5380;BME280;2713;42.680;23.310;2023-02-10T00:11:44;96871.97;;;0.11;54.69
5380;BME280;2713;42.680;23.310;2023-02-10T00:14:23;96872.63;;;-0.03;54.29
5380;BME280;2713;42.680;23.310;2023-02-10T00:16:50;96864.44;;;0.08;54.04
5380;BME280;2713;42.680;23.310;2023-02-10T00:19:20;96862.13;;;0.03;54.57
5380;BME280;2713;42.680;23.310;2023-02-10T00:21:47;96863.22;;;-0.03;54.78
5380;BME280;2713;42.680;23.310;2023-02-10T00:24:13;96862.13;;;0.03;53.96
5380;BME280;2713;42.680;23.310;2023-02-10T00:26:40;96865.28;;;0.08;53.76
5380;BME280;2713;42.680;23.310;2023-02-10T00:29:07;96850.25;;;-0.17;54.63
5380;BME280;2713;42.680;23.310;2023-02-10T00:31:34;96863.03;;;0.02;54.55
5380;BME280;2713;42.680;23.310;2023-02-10T00:34:01;96857.97;;;0.00;54.37
5380;BME280;2713;42.680;23.310;2023-02-10T00:36:29;96858.66;;;0.04;54.60
5380;BME280;2713;42.680;23.310;2023-02-10T00:38:56;96858.94;;;0.17;53.85
5380;BME280;2713;42.680;23.310;2023-02-10T00:41:23;96854.72;;;0.16;53.83
5380;BME280;2713;42.680;23.310;2023-02-10T00:43:51;96841.53;;;0.06;54.51
5380;BME280;2713;42.680;23.310;2023-02-10T00:46:19;96847.44;;;-0.11;53.73
5380;BME280;2713;42.680;23.310;2023-02-10T00:48:46;96841.94;;;-0.03;54.00
5380;BME280;2713;42.680;23.310;2023-02-10T00:51:14;96840.47;;;-0.07;53.60
5380;BME280;2713;42.680;23.310;2023-02-10T00:53:43;96842.28;;;0.08;53.74
5380;BME280;2713;42.680;23.310;2023-02-10T00:56:10;96841.25;;;0.12;53.97
5380;BME280;2713;42.680;23.310;2023-02-10T00:58:37;96837.91;;;-0.26;54.17
5380;BME280;2713;42.680;23.310;2023-02-10T01:01:04;96843.00;;;-0.07;53.58
5380;BME280;2713;42.680;23.310;2023-02-10T01:03:31;96830.97;;;-0.05;53.62
5380;BME280;2713;42.680;23.310;2023-02-10T01:05:59;96825.13;;;-0.07;54.08
5380;BME280;2713;42.680;23.310;2023-02-10T01:08:26;96830.78;;;-0.01;54.08
5380;BME280;2713;42.680;23.310;2023-02-10T01:10:59;96839.28;;;0.00;53.96
5380;BME280;2713;42.680;23.310;2023-02-10T01:13:26;96829.25;;;-0.05;53.59
5380;BME280;2713;42.680;23.310;2023-02-10T01:15:53;96834.28;;;-0.03;54.10
5380;BME280;2713;42.680;23.310;2023-02-10T01:18:20;96832.84;;;-0.09;53.71
5380;BME280;2713;42.680;23.310;2023-02-10T01:20:47;96831.34;;;-0.31;54.07
5380;BME280;2713;42.680;23.310;2023-02-10T01:23:14;96823.63;;;-0.48;54.34
5380;BME280;2713;42.680;23.310;2023-02-10T01:25:41;96829.84;;;-0.35;53.90
5380;BME280;2713;42.680;23.310;2023-02-10T01:28:10;96819.69;;;-0.37;53.57
5380;BME280;2713;42.680;23.310;2023-02-10T01:30:37;96814.25;;;-0.48;54.61
5380;BME280;2713;42.680;23.310;2023-02-10T01:33:04;96808.44;;;-0.52;54.33
5380;BME280;2713;42.680;23.310;2023-02-10T01:35:31;96814.16;;;-0.46;54.34
5380;BME280;2713;42.680;23.310;2023-02-10T01:37:58;96809.06;;;-0.46;54.61
5380;BME280;2713;42.680;23.310;2023-02-10T01:40:25;96814.03;;;-0.62;53.97
5380;BME280;2713;42.680;23.310;2023-02-10T01:42:52;96814.34;;;-0.51;53.18
5380;BME280;2713;42.680;23.310;2023-02-10T01:45:23;96815.19;;;-0.51;53.69
5380;BME280;2713;42.680;23.310;2023-02-10T01:47:53;96809.41;;;-0.73;53.34
5380;BME280;2713;42.680;23.310;2023-02-10T01:50:25;96768.69;;;-0.76;53.38
5380;BME280;2713;42.680;23.310;2023-02-10T01:52:53;96795.09;;;-0.58;53.11
5380;BME280;2713;42.680;23.310;2023-02-10T01:55:23;96795.78;;;-0.55;53.49
5380;BME280;2713;42.680;23.310;2023-02-10T01:57:51;96795.47;;;-0.66;54.11
5380;BME280;2713;42.680;23.310;2023-02-10T02:00:22;96792.28;;;-0.52;52.44
5380;BME280;2713;42.680;23.310;2023-02-10T02:02:50;96793.66;;;-0.64;51.12
5380;BME280;2713;42.680;23.310;2023-02-10T02:05:21;96787.09;;;-0.51;51.79
5380;BME280;2713;42.680;23.310;2023-02-10T02:07:50;96778.34;;;-0.45;51.86
5380;BME280;2713;42.680;23.310;2023-02-10T02:10:17;96786.41;;;-0.54;52.29
5380;BME280;2713;42.680;23.310;2023-02-10T02:12:51;96786.56;;;-0.76;53.21
5380;BME280;2713;42.680;23.310;2023-02-10T02:15:29;96778.13;;;-0.78;54.08
5380;BME280;2713;42.680;23.310;2023-02-10T02:18:07;96775.94;;;-0.48;53.88
5380;BME280;2713;42.680;23.310;2023-02-10T02:21:22;96766.75;;;-0.52;53.65
5380;BME280;2713;42.680;23.310;2023-02-10T02:24:22;96774.22;;;-0.66;54.27
5380;BME280;2713;42.680;23.310;2023-02-10T02:27:04;96771.53;;;-0.63;54.46
5380;BME280;2713;42.680;23.310;2023-02-10T02:29:59;96772.50;;;-0.66;53.76
5380;BME280;2713;42.680;23.310;2023-02-10T02:32:31;96773.81;;;-0.76;53.79
5380;BME280;2713;42.680;23.310;2023-02-10T02:35:02;96764.53;;;-0.97;55.20
5380;BME280;2713;42.680;23.310;2023-02-10T02:37:33;96764.88;;;-1.05;55.28
5380;BME280;2713;42.680;23.310;2023-02-10T02:40:02;96769.81;;;-1.20;55.50
5380;BME280;2713;42.680;23.310;2023-02-10T02:42:31;96763.22;;;-1.44;55.52
5380;BME280;2713;42.680;23.310;2023-02-10T02:45:00;96767.84;;;-0.95;54.40
5380;BME280;2713;42.680;23.310;2023-02-10T02:47:42;96773.59;;;-0.90;54.70
5380;BME280;2713;42.680;23.310;2023-02-10T02:50:20;96772.91;;;-0.93;54.72
5380;BME280;2713;42.680;23.310;2023-02-10T02:52:58;96763.75;;;-1.18;55.48
5380;BME280;2713;42.680;23.310;2023-02-10T02:55:33;96769.44;;;-1.31;55.64
5380;BME280;2713;42.680;23.310;2023-02-10T02:58:07;96772.63;;;-1.46;55.26
5380;BME280;2713;42.680;23.310;2023-02-10T03:00:37;96774.84;;;-1.58;55.71
5380;BME280;2713;42.680;23.310;2023-02-10T03:03:07;96764.94;;;-1.45;55.68
5380;BME280;2713;42.680;23.310;2023-02-10T03:05:36;96763.47;;;-1.50;55.81
5380;BME280;2713;42.680;23.310;2023-02-10T03:08:04;96762.53;;;-1.48;55.29
5380;BME280;2713;42.680;23.310;2023-02-10T03:10:30;96762.97;;;-1.59;55.15
5380;BME280;2713;42.680;23.310;2023-02-10T03:12:57;96767.69;;;-1.70;55.76
5380;BME280;2713;42.680;23.310;2023-02-10T03:15:24;96769.22;;;-1.66;55.67
5380;BME280;2713;42.680;23.310;2023-02-10T03:17:51;96776.19;;;-1.50;54.87
5380;BME280;2713;42.680;23.310;2023-02-10T03:20:19;96782.13;;;-1.50;55.28
5380;BME280;2713;42.680;23.310;2023-02-10T03:22:46;96771.19;;;-1.52;54.71
5380;BME280;2713;42.680;23.310;2023-02-10T03:25:12;96771.56;;;-1.41;53.78
5380;BME280;2713;42.680;23.310;2023-02-10T03:27:39;96782.47;;;-1.37;54.27
5380;BME280;2713;42.680;23.310;2023-02-10T03:30:07;96769.03;;;-1.22;53.38
5380;BME280;2713;42.680;23.310;2023-02-10T03:32:34;96775.03;;;-1.03;53.03
5380;BME280;2713;42.680;23.310;2023-02-10T03:35:01;96777.50;;;-1.02;53.07
5380;BME280;2713;42.680;23.310;2023-02-10T03:37:29;96768.72;;;-1.15;53.06
5380;BME280;2713;42.680;23.310;2023-02-10T03:39:56;96774.00;;;-1.19;53.52
5380;BME280;2713;42.680;23.310;2023-02-10T03:42:23;96764.84;;;-1.23;54.26
5380;BME280;2713;42.680;23.310;2023-02-10T03:44:50;96760.53;;;-1.03;52.67
5380;BME280;2713;42.680;23.310;2023-02-10T03:47:16;96747.56;;;-0.98;52.99
5380;BME280;2713;42.680;23.310;2023-02-10T03:49:43;96751.28;;;-1.05;53.06
5380;BME280;2713;42.680;23.310;2023-02-10T03:52:10;96753.41;;;-1.15;53.49
5380;BME280;2713;42.680;23.310;2023-02-10T03:54:38;96743.16;;;-1.13;53.97
5380;BME280;2713;42.680;23.310;2023-02-10T03:57:05;96750.81;;;-1.33;54.35
5380;BME280;2713;42.680;23.310;2023-02-10T03:59:32;96746.72;;;-1.17;54.00
5380;BME280;2713;42.680;23.310;2023-02-10T04:01:59;96749.19;;;-1.16;54.21
5380;BME280;2713;42.680;23.310;2023-02-10T04:04:26;96749.00;;;-1.11;53.96
5380;BME280;2713;42.680;23.310;2023-02-10T04:06:52;96748.88;;;-1.08;53.75
5380;BME280;2713;42.680;23.310;2023-02-10T04:09:19;96742.41;;;-1.35;53.84
5380;BME280;2713;42.680;23.310;2023-02-10T04:11:48;96743.22;;;-1.15;54.07
5380;BME280;2713;42.680;23.310;2023-02-10T04:14:15;96729.53;;;-1.32;54.12
5380;BME280;2713;42.680;23.310;2023-02-10T04:16:42;96729.84;;;-1.59;54.03
5380;BME280;2713;42.680;23.310;2023-02-10T04:19:09;96745.28;;;-1.43;54.92
5380;BME280;2713;42.680;23.310;2023-02-10T04:21:35;96755.09;;;-1.54;55.48
5380;BME280;2713;42.680;23.310;2023-02-10T04:24:03;96746.13;;;-1.42;54.74
5380;BME280;2713;42.680;23.310;2023-02-10T04:26:29;96742.97;;;-1.47;54.89
5380;BME280;2713;42.680;23.310;2023-02-10T04:28:58;96747.91;;;-1.24;54.17
5380;BME280;2713;42.680;23.310;2023-02-10T04:31:25;96735.91;;;-1.42;55.04
5380;BME280;2713;42.680;23.310;2023-02-10T04:33:52;96745.81;;;-1.35;54.81
5380;BME280;2713;42.680;23.310;2023-02-10T04:36:19;96743.44;;;-1.39;55.65
5380;BME280;2713;42.680;23.310;2023-02-10T04:38:46;96742.25;;;-1.71;56.24
5380;BME280;2713;42.680;23.310;2023-02-10T04:41:12;96752.00;;;-1.61;55.94
5380;BME280;2713;42.680;23.310;2023-02-10T04:43:39;96746.00;;;-1.60;55.85
5380;BME280;2713;42.680;23.310;2023-02-10T04:46:07;96751.75;;;-1.55;55.67
5380;BME280;2713;42.680;23.310;2023-02-10T04:48:34;96748.63;;;-1.41;55.29
5380;BME280;2713;42.680;23.310;2023-02-10T04:51:05;96756.69;;;-1.31;54.75
5380;BME280;2713;42.680;23.310;2023-02-10T04:53:32;96761.69;;;-1.48;55.52
5380;BME280;2713;42.680;23.310;2023-02-10T04:55:59;96753.66;;;-1.60;54.51
5380;BME280;2713;42.680;23.310;2023-02-10T04:58:26;96761.88;;;-1.53;54.37
5380;BME280;2713;42.680;23.310;2023-02-10T05:00:54;96757.47;;;-1.70;54.12
5380;BME280;2713;42.680;23.310;2023-02-10T05:03:23;96764.38;;;-1.51;53.71
5380;BME280;2713;42.680;23.310;2023-02-10T05:05:50;96757.59;;;-1.52;53.63
5380;BME280;2713;42.680;23.310;2023-02-10T05:08:18;96763.47;;;-1.50;53.13
5380;BME280;2713;42.680;23.310;2023-02-10T05:10:48;96779.47;;;-1.47;53.23
5380;BME280;2713;42.680;23.310;2023-02-10T05:13:15;96770.22;;;-1.49;53.85
5380;BME280;2713;42.680;23.310;2023-02-10T05:15:42;96769.06;;;-1.42;53.92
5380;BME280;2713;42.680;23.310;2023-02-10T05:18:09;96770.56;;;-1.18;53.81
5380;BME280;2713;42.680;23.310;2023-02-10T05:20:37;96780.47;;;-1.11;53.56
5380;BME280;2713;42.680;23.310;2023-02-10T05:23:04;96786.72;;;-1.18;54.41
5380;BME280;2713;42.680;23.310;2023-02-10T05:25:31;96795.38;;;-1.22;54.40
5380;BME280;2713;42.680;23.310;2023-02-10T05:27:58;96804.91;;;-1.25;54.13
5380;BME280;2713;42.680;23.310;2023-02-10T05:30:25;96799.28;;;-1.33;54.70
5380;BME280;2713;42.680;23.310;2023-02-10T05:32:52;96803.50;;;-1.32;54.51
5380;BME280;2713;42.680;23.310;2023-02-10T05:35:19;96802.66;;;-1.33;54.70
5380;BME280;2713;42.680;23.310;2023-02-10T05:37:47;96802.84;;;-1.17;53.98
5380;BME280;2713;42.680;23.310;2023-02-10T05:40:14;96810.75;;;-1.23;53.95
5380;BME280;2713;42.680;23.310;2023-02-10T05:42:41;96812.78;;;-1.11;53.44
5380;BME280;2713;42.680;23.310;2023-02-10T05:45:08;96805.22;;;-0.94;53.30
5380;BME280;2713;42.680;23.310;2023-02-10T05:47:35;96814.31;;;-1.07;53.17
5380;BME280;2713;42.680;23.310;2023-02-10T05:50:02;96821.34;;;-1.52;53.85
5380;BME280;2713;42.680;23.310;2023-02-10T05:52:29;96820.97;;;-2.06;54.32
5380;BME280;2713;42.680;23.310;2023-02-10T05:54:57;96830.25;;;-2.49;55.71
5380;BME280;2713;42.680;23.310;2023-02-10T05:57:24;96826.28;;;-2.57;56.88
5380;BME280;2713;42.680;23.310;2023-02-10T05:59:50;96827.09;;;-2.33;56.01
5380;BME280;2713;42.680;23.310;2023-02-10T06:02:17;96826.41;;;-2.36;55.85
5380;BME280;2713;42.680;23.310;2023-02-10T06:04:44;96825.56;;;-2.37;54.88
5380;BME280;2713;42.680;23.310;2023-02-10T06:07:11;96830.66;;;-2.37;54.97
5380;BME280;2713;42.680;23.310;2023-02-10T06:09:37;96839.88;;;-2.34;55.37
5380;BME280;2713;42.680;23.310;2023-02-10T06:12:07;96839.06;;;-2.35;55.86
5380;BME280;2713;42.680;23.310;2023-02-10T06:14:34;96846.88;;;-2.18;55.82
5380;BME280;2713;42.680;23.310;2023-02-10T06:17:03;96851.81;;;-2.13;54.96
5380;BME280;2713;42.680;23.310;2023-02-10T06:19:34;96847.91;;;-2.00;54.87
5380;BME280;2713;42.680;23.310;2023-02-10T06:22:01;96843.84;;;-1.84;55.09
5380;BME280;2713;42.680;23.310;2023-02-10T06:24:28;96851.97;;;-1.74;54.16
5380;BME280;2713;42.680;23.310;2023-02-10T06:26:55;96855.50;;;-1.57;54.32
5380;BME280;2713;42.680;23.310;2023-02-10T06:29:24;96852.94;;;-1.57;53.98
5380;BME280;2713;42.680;23.310;2023-02-10T06:31:53;96855.41;;;-1.97;54.35
5380;BME280;2713;42.680;23.310;2023-02-10T06:34:20;96868.00;;;-1.92;54.88
5380;BME280;2713;42.680;23.310;2023-02-10T06:36:47;96862.97;;;-1.74;54.61
5380;BME280;2713;42.680;23.310;2023-02-10T06:39:14;96861.34;;;-1.75;54.83
5380;BME280;2713;42.680;23.310;2023-02-10T06:41:41;96859.94;;;-1.82;54.03
5380;BME280;2713;42.680;23.310;2023-02-10T06:44:07;96862.22;;;-1.76;54.40
5380;BME280;2713;42.680;23.310;2023-02-10T06:46:36;96860.63;;;-1.78;54.47
5380;BME280;2713;42.680;23.310;2023-02-10T06:49:02;96861.78;;;-1.85;54.93
5380;BME280;2713;42.680;23.310;2023-02-10T06:51:29;96864.84;;;-1.99;55.04
5380;BME280;2713;42.680;23.310;2023-02-10T06:53:56;96868.56;;;-2.08;55.62
5380;BME280;2713;42.680;23.310;2023-02-10T06:56:23;96862.91;;;-1.92;55.15
5380;BME280;2713;42.680;23.310;2023-02-10T06:58:49;96870.59;;;-1.94;55.45
5380;BME280;2713;42.680;23.310;2023-02-10T07:01:17;96876.22;;;-1.86;55.62
5380;BME280;2713;42.680;23.310;2023-02-10T07:03:46;96882.44;;;-1.93;55.59
5380;BME280;2713;42.680;23.310;2023-02-10T07:06:12;96880.94;;;-1.77;55.27
5380;BME280;2713;42.680;23.310;2023-02-10T07:08:39;96877.56;;;-1.56;54.28
5380;BME280;2713;42.680;23.310;2023-02-10T07:11:06;96871.44;;;-1.51;54.76
5380;BME280;2713;42.680;23.310;2023-02-10T07:13:33;96862.81;;;-1.27;53.82
5380;BME280;2713;42.680;23.310;2023-02-10T07:16:00;96869.66;;;-1.29;53.47
5380;BME280;2713;42.680;23.310;2023-02-10T07:18:26;96856.06;;;-1.50;53.62
5380;BME280;2713;42.680;23.310;2023-02-10T07:20:56;96863.53;;;-1.45;53.38
5380;BME280;2713;42.680;23.310;2023-02-10T07:23:23;96857.44;;;-1.21;53.06
5380;BME280;2713;42.680;23.310;2023-02-10T07:25:50;96860.25;;;-1.07;52.61
5380;BME280;2713;42.680;23.310;2023-02-10T07:28:17;96859.16;;;-1.02;53.42
5380;BME280;2713;42.680;23.310;2023-02-10T07:30:44;96858.44;;;-1.05;53.29
5380;BME280;2713;42.680;23.310;2023-02-10T07:33:10;96857.00;;;-1.11;53.28
5380;BME280;2713;42.680;23.310;2023-02-10T07:35:37;96857.44;;;-1.21;52.20
5380;BME280;2713;42.680;23.310;2023-02-10T07:38:05;96854.88;;;-1.01;52.63
5380;BME280;2713;42.680;23.310;2023-02-10T07:40:32;96851.53;;;-0.83;52.09
5380;BME280;2713;42.680;23.310;2023-02-10T07:42:59;96855.88;;;-0.85;52.03
5380;BME280;2713;42.680;23.310;2023-02-10T07:45:46;96854.47;;;-0.92;52.29
5380;BME280;2713;42.680;23.310;2023-02-10T07:48:15;96847.66;;;-0.53;51.06
5380;BME280;2713;42.680;23.310;2023-02-10T07:50:43;96846.53;;;-0.28;51.34
5380;BME280;2713;42.680;23.310;2023-02-10T07:53:11;96851.41;;;-0.05;50.47
5380;BME280;2713;42.680;23.310;2023-02-10T07:55:38;96843.69;;;0.32;49.40
5380;BME280;2713;42.680;23.310;2023-02-10T07:58:05;96864.63;;;0.58;49.12
5380;BME280;2713;42.680;23.310;2023-02-10T08:00:32;96868.91;;;0.91;46.59
5380;BME280;2713;42.680;23.310;2023-02-10T08:02:59;96868.28;;;1.03;47.33
5380;BME280;2713;42.680;23.310;2023-02-10T08:05:26;96871.34;;;1.60;46.25
5380;BME280;2713;42.680;23.310;2023-02-10T08:07:53;96862.19;;;2.03;44.66
5380;BME280;2713;42.680;23.310;2023-02-10T08:10:22;96850.75;;;2.24;44.14
5380;BME280;2713;42.680;23.310;2023-02-10T08:12:49;96854.94;;;2.41;43.93
5380;BME280;2713;42.680;23.310;2023-02-10T08:15:16;96849.03;;;2.84;43.35
5380;BME280;2713;42.680;23.310;2023-02-10T08:17:43;96855.00;;;2.55;42.62
5380;BME280;2713;42.680;23.310;2023-02-10T08:20:10;96842.66;;;2.62;41.87
5380;BME280;2713;42.680;23.310;2023-02-10T08:22:37;96839.84;;;2.66;42.85
5380;BME280;2713;42.680;23.310;2023-02-10T08:25:04;96837.25;;;3.10;42.74
5380;BME280;2713;42.680;23.310;2023-02-10T08:27:33;96844.03;;;3.39;41.98
5380;BME280;2713;42.680;23.310;2023-02-10T08:29:59;96844.03;;;3.82;41.15
5380;BME280;2713;42.680;23.310;2023-02-10T08:32:26;96835.72;;;3.91;39.98
5380;BME280;2713;42.680;23.310;2023-02-10T08:34:53;96838.91;;;4.08;39.91
5380;BME280;2713;42.680;23.310;2023-02-10T08:37:20;96847.81;;;4.17;40.26
5380;BME280;2713;42.680;23.310;2023-02-10T08:39:47;96841.97;;;4.01;39.32
5380;BME280;2713;42.680;23.310;2023-02-10T08:42:14;96846.59;;;3.82;40.86
5380;BME280;2713;42.680;23.310;2023-02-10T08:44:42;96831.84;;;3.43;41.00
5380;BME280;2713;42.680;23.310;2023-02-10T08:47:08;96844.50;;;3.74;40.70
5380;BME280;2713;42.680;23.310;2023-02-10T08:49:36;96837.13;;;4.23;40.19
5380;BME280;2713;42.680;23.310;2023-02-10T08:52:03;96840.78;;;4.33;39.85
5380;BME280;2713;42.680;23.310;2023-02-10T08:54:30;96830.16;;;4.65;39.81
5380;BME280;2713;42.680;23.310;2023-02-10T08:56:57;96835.19;;;4.27;38.33
5380;BME280;2713;42.680;23.310;2023-02-10T08:59:24;96834.78;;;4.06;38.87
5380;BME280;2713;42.680;23.310;2023-02-10T09:01:52;96833.03;;;3.80;41.07
5380;BME280;2713;42.680;23.310;2023-02-10T09:04:19;96835.16;;;4.14;39.59
5380;BME280;2713;42.680;23.310;2023-02-10T09:06:47;96822.31;;;4.27;39.71
5380;BME280;2713;42.680;23.310;2023-02-10T09:09:16;96820.56;;;4.27;38.68
5380;BME280;2713;42.680;23.310;2023-02-10T09:11:45;96817.44;;;4.49;39.52
5380;BME280;2713;42.680;23.310;2023-02-10T09:14:12;96824.53;;;4.72;38.63
5380;BME280;2713;42.680;23.310;2023-02-10T09:16:39;96815.63;;;4.76;38.68
5380;BME280;2713;42.680;23.310;2023-02-10T09:19:08;96813.88;;;4.64;38.80
5380;BME280;2713;42.680;23.310;2023-02-10T09:21:35;96808.78;;;4.37;38.58
5380;BME280;2713;42.680;23.310;2023-02-10T09:24:02;96781.81;;;4.16;39.85
5380;BME280;2713;42.680;23.310;2023-02-10T09:26:28;96810.13;;;3.89;39.89
5380;BME280;2713;42.680;23.310;2023-02-10T09:28:55;96807.22;;;3.67;40.82
5380;BME280;2713;42.680;23.310;2023-02-10T09:31:23;96807.53;;;3.20;41.61
5380;BME280;2713;42.680;23.310;2023-02-10T09:33:50;96815.88;;;3.10;42.07
5380;BME280;2713;42.680;23.310;2023-02-10T09:36:19;96812.75;;;2.61;42.21
5380;BME280;2713;42.680;23.310;2023-02-10T09:38:46;96801.19;;;2.53;42.82
5380;BME280;2713;42.680;23.310;2023-02-10T09:41:24;96803.34;;;2.75;43.01
5380;BME280;2713;42.680;23.310;2023-02-10T09:44:03;96789.66;;;2.46;42.34
5380;BME280;2713;42.680;23.310;2023-02-10T09:46:46;96792.44;;;2.72;42.07
5380;BME280;2713;42.680;23.310;2023-02-10T09:49:23;96798.72;;;2.96;41.90
5380;BME280;2713;42.680;23.310;2023-02-10T09:52:02;96794.88;;;2.59;41.93
5380;BME280;2713;42.680;23.310;2023-02-10T09:54:32;96786.13;;;2.47;43.16
5380;BME280;2713;42.680;23.310;2023-02-10T09:57:01;96787.84;;;2.63;42.96
5380;BME280;2713;42.680;23.310;2023-02-10T09:59:30;96787.44;;;2.54;43.36
5380;BME280;2713;42.680;23.310;2023-02-10T10:02:01;96772.75;;;2.42;42.93
5380;BME280;2713;42.680;23.310;2023-02-10T10:04:37;96779.22;;;2.78;42.89
5380;BME280;2713;42.680;23.310;2023-02-10T10:07:14;96768.78;;;2.95;42.49
5380;BME280;2713;42.680;23.310;2023-02-10T10:09:48;96764.50;;;2.95;41.81
5380;BME280;2713;42.680;23.310;2023-02-10T10:12:18;96762.75;;;2.96;41.16
5380;BME280;2713;42.680;23.310;2023-02-10T10:14:46;96755.13;;;2.66;41.88
5380;BME280;2713;42.680;23.310;2023-02-10T10:17:33;96756.59;;;2.70;42.00
5380;BME280;2713;42.680;23.310;2023-02-10T10:20:25;96754.75;;;2.72;42.21
5380;BME280;2713;42.680;23.310;2023-02-10T10:23:03;96750.00;;;2.80;42.88
5380;BME280;2713;42.680;23.310;2023-02-10T10:25:52;96737.78;;;2.70;42.22
5380;BME280;2713;42.680;23.310;2023-02-10T10:28:30;96742.28;;;2.66;42.95
5380;BME280;2713;42.680;23.310;2023-02-10T10:31:03;96738.97;;;2.64;42.74
5380;BME280;2713;42.680;23.310;2023-02-10T10:33:36;96734.31;;;2.57;42.71
5380;BME280;2713;42.680;23.310;2023-02-10T10:36:11;96733.69;;;2.37;42.91
5380;BME280;2713;42.680;23.310;2023-02-10T10:38:46;96726.03;;;2.51;43.12
5380;BME280;2713;42.680;23.310;2023-02-10T10:41:14;96727.72;;;2.81;41.93
5380;BME280;2713;42.680;23.310;2023-02-10T10:43:46;96717.63;;;2.92;42.77
5380;BME280;2713;42.680;23.310;2023-02-10T10:46:16;96718.25;;;3.24;42.24
5380;BME280;2713;42.680;23.310;2023-02-10T10:48:45;96714.91;;;3.36;41.68
5380;BME280;2713;42.680;23.310;2023-02-10T10:51:13;96717.84;;;3.44;41.63
5380;BME280;2713;42.680;23.310;2023-02-10T10:53:43;96712.31;;;3.50;41.13
5380;BME280;2713;42.680;23.310;2023-02-10T10:56:19;96716.28;;;3.41;41.67
5380;BME280;2713;42.680;23.310;2023-02-10T10:58:49;96711.25;;;3.40;41.77
5380;BME280;2713;42.680;23.310;2023-02-10T11:01:18;96702.81;;;3.65;40.89
5380;BME280;2713;42.680;23.310;2023-02-10T11:04:03;96697.25;;;3.85;40.05
5380;BME280;2713;42.680;23.310;2023-02-10T11:06:34;96698.69;;;3.89;40.32
5380;BME280;2713;42.680;23.310;2023-02-10T11:09:05;96698.41;;;3.67;40.57
5380;BME280;2713;42.680;23.310;2023-02-10T11:11:35;96696.69;;;3.53;41.40
5380;BME280;2713;42.680;23.310;2023-02-10T11:14:13;96686.81;;;3.74;40.93
5380;BME280;2713;42.680;23.310;2023-02-10T11:16:43;96697.47;;;3.94;40.09
5380;BME280;2713;42.680;23.310;2023-02-10T11:19:18;96677.16;;;3.50;40.61
5380;BME280;2713;42.680;23.310;2023-02-10T11:21:45;96689.56;;;3.44;40.74
5380;BME280;2713;42.680;23.310;2023-02-10T11:24:20;96684.81;;;3.65;40.71
5380;BME280;2713;42.680;23.310;2023-02-10T11:26:55;96676.69;;;3.97;40.21
5380;BME280;2713;42.680;23.310;2023-02-10T11:29:22;96673.34;;;4.09;39.84
5380;BME280;2713;42.680;23.310;2023-02-10T11:31:50;96669.72;;;4.12;39.83
5380;BME280;2713;42.680;23.310;2023-02-10T11:34:21;96671.09;;;4.30;39.17
5380;BME280;2713;42.680;23.310;2023-02-10T11:36:51;96676.03;;;4.33;39.62
5380;BME280;2713;42.680;23.310;2023-02-10T11:39:23;96664.81;;;4.59;39.57
5380;BME280;2713;42.680;23.310;2023-02-10T11:41:51;96658.13;;;4.70;38.60
5380;BME280;2713;42.680;23.310;2023-02-10T11:44:25;96655.31;;;4.98;37.66
5380;BME280;2713;42.680;23.310;2023-02-10T11:46:57;96662.94;;;5.36;37.39
5380;BME280;2713;42.680;23.310;2023-02-10T11:49:25;96655.97;;;5.61;37.81
5380;BME280;2713;42.680;23.310;2023-02-10T11:51:56;96655.50;;;5.68;36.95
5380;BME280;2713;42.680;23.310;2023-02-10T11:54:26;96660.91;;;5.76;36.57
5380;BME280;2713;42.680;23.310;2023-02-10T11:57:04;96651.75;;;6.19;36.31
5380;BME280;2713;42.680;23.310;2023-02-10T12:00:02;96648.63;;;5.79;36.74
5380;BME280;2713;42.680;23.310;2023-02-10T12:02:52;96638.31;;;6.03;36.48
5380;BME280;2713;42.680;23.310;2023-02-10T12:05:28;96641.41;;;6.19;35.56
5380;BME280;2713;42.680;23.310;2023-02-10T12:08:12;96638.72;;;6.21;35.89
5380;BME280;2713;42.680;23.310;2023-02-10T12:10:46;96637.00;;;6.32;34.65
5380;BME280;2713;42.680;23.310;2023-02-10T12:13:28;96630.59;;;6.14;35.44
5380;BME280;2713;42.680;23.310;2023-02-10T12:16:06;96621.78;;;6.05;35.88
5380;BME280;2713;42.680;23.310;2023-02-10T12:18:47;96619.31;;;5.80;36.08
5380;BME280;2713;42.680;23.310;2023-02-10T12:21:29;96612.59;;;5.67;36.77
5380;BME280;2713;42.680;23.310;2023-02-10T12:24:13;96618.41;;;5.57;37.28
5380;BME280;2713;42.680;23.310;2023-02-10T12:26:51;96597.22;;;5.89;35.97
5380;BME280;2713;42.680;23.310;2023-02-10T12:29:36;96606.09;;;6.20;36.04
5380;BME280;2713;42.680;23.310;2023-02-10T12:32:14;96610.72;;;6.49;35.47
5380;BME280;2713;42.680;23.310;2023-02-10T12:34:59;96602.03;;;6.61;34.98
5380;BME280;2713;42.680;23.310;2023-02-10T12:37:35;96606.38;;;6.72;35.24
5380;BME280;2713;42.680;23.310;2023-02-10T12:40:24;96602.72;;;6.52;35.33
5380;BME280;2713;42.680;23.310;2023-02-10T12:43:04;96600.84;;;6.54;35.09
5380;BME280;2713;42.680;23.310;2023-02-10T12:45:43;96605.81;;;6.57;34.75
5380;BME280;2713;42.680;23.310;2023-02-10T12:48:24;96593.88;;;6.22;35.28
5380;BME280;2713;42.680;23.310;2023-02-10T12:51:05;96580.84;;;6.12;35.98
5380;BME280;2713;42.680;23.310;2023-02-10T12:53:41;96589.50;;;6.00;36.10
5380;BME280;2713;42.680;23.310;2023-02-10T12:56:17;96590.47;;;6.21;36.19
5380;BME280;2713;42.680;23.310;2023-02-10T12:58:51;96595.94;;;6.40;35.37
5380;BME280;2713;42.680;23.310;2023-02-10T13:01:25;96595.69;;;6.32;35.61
5380;BME280;2713;42.680;23.310;2023-02-10T13:03:57;96591.59;;;5.95;36.53
5380;BME280;2713;42.680;23.310;2023-02-10T13:06:32;96588.34;;;5.80;37.21
5380;BME280;2713;42.680;23.310;2023-02-10T13:09:05;96593.16;;;5.74;37.50
5380;BME280;2713;42.680;23.310;2023-02-10T13:11:40;96583.13;;;5.58;36.60
5380;BME280;2713;42.680;23.310;2023-02-10T13:14:14;96591.25;;;5.76;37.10
5380;BME280;2713;42.680;23.310;2023-02-10T13:16:50;96590.28;;;5.54;37.40
5380;BME280;2713;42.680;23.310;2023-02-10T13:19:25;96584.31;;;5.65;37.09
5380;BME280;2713;42.680;23.310;2023-02-10T13:21:58;96590.19;;;5.91;36.98
5380;BME280;2713;42.680;23.310;2023-02-10T13:24:31;96592.44;;;5.95;37.06
5380;BME280;2713;42.680;23.310;2023-02-10T13:27:15;96592.31;;;5.97;35.62
5380;BME280;2713;42.680;23.310;2023-02-10T13:29:52;96590.69;;;6.07;36.63
5380;BME280;2713;42.680;23.310;2023-02-10T13:32:33;96588.84;;;6.09;35.96